createdAt,value
2023-05-03T00:01:31.785Z,9.48
2023-05-03T00:03:58.490Z,5.90
2023-05-03T00:06:25.759Z,9.25
2023-05-03T00:08:52.522Z,6.97
2023-05-03T00:11:19.207Z,9.77
2023-05-03T00:13:46.008Z,4.93
2023-05-03T00:16:13.009Z,6.43
2023-05-03T00:18:39.713Z,5.30
2023-05-03T00:21:06.478Z,5.82
2023-05-03T00:23:33.099Z,3.50
2023-05-03T00:25:59.825Z,7.07
2023-05-03T00:28:26.935Z,5.50
2023-05-03T00:30:53.608Z,5.10
2023-05-03T00:33:20.427Z,5.80
2023-05-03T00:35:47.168Z,4.80
2023-05-03T00:38:16.608Z,4.60
2023-05-03T00:40:43.375Z,4.05
2023-05-03T00:43:12.372Z,5.38
2023-05-03T00:45:39.000Z,4.57
2023-05-03T00:48:06.508Z,5.03
2023-05-03T00:50:33.291Z,5.55
2023-05-03T00:53:00.050Z,4.10
2023-05-03T00:55:28.509Z,4.05
2023-05-03T00:57:55.148Z,4.57
2023-05-03T01:00:22.319Z,5.43
2023-05-03T01:02:49.501Z,4.07
2023-05-03T01:05:16.635Z,5.57
2023-05-03T01:07:58.448Z,4.60
2023-05-03T01:10:42.436Z,8.65
2023-05-03T01:13:21.813Z,6.32
2023-05-03T01:16:10.587Z,6.25
2023-05-03T01:18:41.123Z,5.07
2023-05-03T01:21:07.929Z,5.65
2023-05-03T01:24:00.972Z,4.15
2023-05-03T01:26:28.082Z,6.72
2023-05-03T01:28:55.008Z,5.28
2023-05-03T01:31:35.599Z,6.40
2023-05-03T01:34:05.596Z,5.65
2023-05-03T01:36:32.658Z,6.65
2023-05-03T01:39:19.582Z,6.72
2023-05-03T01:41:46.220Z,7.55
2023-05-03T01:44:12.847Z,4.68
2023-05-03T01:46:44.169Z,11.00
2023-05-03T01:49:10.843Z,7.70
2023-05-03T01:51:37.510Z,5.13
2023-05-03T01:54:04.351Z,4.75
2023-05-03T01:56:31.742Z,8.10
2023-05-03T01:58:58.417Z,7.93
2023-05-03T02:01:25.473Z,7.70
2023-05-03T02:03:52.295Z,7.80
2023-05-03T02:06:19.059Z,7.50
2023-05-03T02:08:46.171Z,10.20
2023-05-03T02:11:12.850Z,5.50
2023-05-03T02:13:39.702Z,8.05
2023-05-03T02:16:06.444Z,6.63
2023-05-03T02:18:33.711Z,7.72
2023-05-03T02:21:00.389Z,7.03
2023-05-03T02:23:27.107Z,7.63
2023-05-03T02:25:53.776Z,7.55
2023-05-03T02:28:20.626Z,9.07
2023-05-03T02:30:47.474Z,8.30
2023-05-03T02:33:14.210Z,9.02
2023-05-03T02:35:40.921Z,6.75
2023-05-03T02:38:07.693Z,7.30
2023-05-03T02:40:34.363Z,6.65
2023-05-03T02:43:02.524Z,5.85
2023-05-03T02:45:29.422Z,6.70
2023-05-03T02:47:56.300Z,6.75
2023-05-03T02:50:23.027Z,7.70
2023-05-03T02:52:49.716Z,6.15
2023-05-03T02:55:16.743Z,7.07
2023-05-03T02:57:43.422Z,7.60
2023-05-03T03:00:11.555Z,6.60
2023-05-03T03:02:38.374Z,7.38
2023-05-03T03:05:05.516Z,5.60
2023-05-03T03:07:32.838Z,6.82
2023-05-03T03:09:59.558Z,6.38
2023-05-03T03:12:27.835Z,6.43
2023-05-03T03:14:54.713Z,6.75
2023-05-03T03:17:21.409Z,6.65
2023-05-03T03:19:48.157Z,17.17
2023-05-03T03:22:14.941Z,14.48
2023-05-03T03:24:41.562Z,9.20
2023-05-03T03:27:08.180Z,8.73
2023-05-03T03:29:35.493Z,8.15
2023-05-03T03:32:02.321Z,7.18
2023-05-03T03:34:29.107Z,10.23
2023-05-03T03:36:56.069Z,8.60
2023-05-03T03:39:22.723Z,8.50
2023-05-03T03:41:49.383Z,9.98
2023-05-03T03:44:16.123Z,10.25
2023-05-03T03:46:42.914Z,9.60
2023-05-03T03:49:09.712Z,11.68
2023-05-03T03:51:36.392Z,8.95
2023-05-03T03:54:03.072Z,9.10
2023-05-03T03:56:29.770Z,7.97
2023-05-03T03:58:56.716Z,7.63
2023-05-03T04:01:23.579Z,10.48
2023-05-03T04:03:50.443Z,6.00
2023-05-03T04:06:17.365Z,11.35
2023-05-03T04:08:44.138Z,10.40
2023-05-03T04:11:14.080Z,7.10
2023-05-03T04:13:40.833Z,9.85
2023-05-03T04:16:07.771Z,11.45
2023-05-03T04:18:34.496Z,9.98
2023-05-03T04:21:01.186Z,9.70
2023-05-03T04:23:29.212Z,6.70
2023-05-03T04:25:57.184Z,7.53
2023-05-03T04:28:25.845Z,6.00
2023-05-03T04:30:53.351Z,7.63
2023-05-03T04:33:20.581Z,7.80
2023-05-03T04:35:51.293Z,8.40
2023-05-03T04:38:19.262Z,8.43
2023-05-03T04:40:46.641Z,9.18
2023-05-03T04:43:13.270Z,6.93
2023-05-03T04:45:40.977Z,5.70
2023-05-03T04:48:08.115Z,8.20
2023-05-03T04:50:34.849Z,9.40
2023-05-03T04:53:01.761Z,8.85
2023-05-03T04:55:28.434Z,9.23
2023-05-03T04:57:55.751Z,12.77
2023-05-03T05:00:23.435Z,11.45
2023-05-03T05:02:50.263Z,10.00
2023-05-03T05:05:18.233Z,8.60
2023-05-03T05:07:46.867Z,7.25
2023-05-03T05:10:14.736Z,7.38
2023-05-03T05:12:41.589Z,6.88
2023-05-03T05:15:09.163Z,6.85
2023-05-03T05:17:36.053Z,10.57
2023-05-03T05:20:02.978Z,7.05
2023-05-03T05:22:29.799Z,10.07
2023-05-03T05:24:57.071Z,6.93
2023-05-03T05:27:23.886Z,5.93
2023-05-03T05:29:50.605Z,6.43
2023-05-03T05:32:17.261Z,11.32
2023-05-03T05:34:45.782Z,10.75
2023-05-03T05:37:12.740Z,12.18
2023-05-03T05:39:39.439Z,13.02
2023-05-03T05:42:06.206Z,11.63
2023-05-03T05:44:32.942Z,12.20
2023-05-03T05:46:59.689Z,10.40
2023-05-03T05:49:26.398Z,11.32
2023-05-03T05:51:53.015Z,12.68
2023-05-03T05:54:19.683Z,10.43
2023-05-03T05:56:46.693Z,9.45
2023-05-03T05:59:13.373Z,9.45
2023-05-03T06:01:44.593Z,9.48
2023-05-03T06:04:11.748Z,12.38
2023-05-03T06:06:38.988Z,9.95
2023-05-03T06:09:16.611Z,9.95
2023-05-03T06:11:50.800Z,10.88
2023-05-03T06:14:19.424Z,7.88
2023-05-03T06:19:13.033Z,8.68
2023-05-03T06:21:39.710Z,8.35
2023-05-03T06:24:06.538Z,8.48
2023-05-03T06:26:33.135Z,8.18
2023-05-03T06:29:01.024Z,7.32
2023-05-03T06:31:27.913Z,12.35
2023-05-03T06:33:54.650Z,11.27
2023-05-03T06:36:22.208Z,10.02
2023-05-03T06:38:48.916Z,10.05
2023-05-03T06:41:15.629Z,11.27
2023-05-03T06:43:42.311Z,9.43
2023-05-03T06:46:09.127Z,11.13
2023-05-03T06:48:35.900Z,9.52
2023-05-03T06:51:02.641Z,11.40
2023-05-03T06:53:29.347Z,9.85
2023-05-03T06:55:56.000Z,9.60
2023-05-03T06:58:22.680Z,8.30
2023-05-03T07:00:53.002Z,10.35
2023-05-03T07:03:19.856Z,9.30
2023-05-03T07:05:47.223Z,10.57
2023-05-03T07:08:13.975Z,10.30
2023-05-03T07:10:41.926Z,9.10
2023-05-03T07:13:08.682Z,10.93
2023-05-03T07:15:35.350Z,13.18
2023-05-03T07:18:02.043Z,13.32
2023-05-03T07:20:28.833Z,11.15
2023-05-03T07:22:55.811Z,11.02
2023-05-03T07:25:22.573Z,14.55
2023-05-03T07:27:49.341Z,10.90
2023-05-03T07:30:16.128Z,11.25
2023-05-03T07:32:42.936Z,7.07
2023-05-03T07:35:09.879Z,12.05
2023-05-03T07:37:38.684Z,12.63
2023-05-03T07:40:07.153Z,7.45
2023-05-03T07:42:33.996Z,7.47
2023-05-03T07:45:01.198Z,8.63
2023-05-03T07:47:28.128Z,51.38
2023-05-03T07:49:54.906Z,87.90
2023-05-03T07:52:21.622Z,10.80
2023-05-03T07:54:48.426Z,8.27
2023-05-03T07:57:15.254Z,9.48
2023-05-03T07:59:43.500Z,11.18
2023-05-03T08:02:10.412Z,11.60
2023-05-03T08:04:37.348Z,11.23
2023-05-03T08:07:04.478Z,12.48
2023-05-03T08:09:31.234Z,11.77
2023-05-03T08:11:58.060Z,14.35
2023-05-03T08:14:24.692Z,11.85
2023-05-03T08:16:51.552Z,9.23
2023-05-03T08:19:18.289Z,10.73
2023-05-03T08:21:46.905Z,9.80
2023-05-03T08:24:16.007Z,8.02
2023-05-03T08:26:48.441Z,10.75
2023-05-03T08:29:15.417Z,12.63
2023-05-03T08:31:42.122Z,14.07
2023-05-03T08:34:10.785Z,12.63
2023-05-03T08:36:40.301Z,13.80
2023-05-03T08:39:07.210Z,7.82
2023-05-03T08:41:33.964Z,8.77
2023-05-03T08:44:00.924Z,11.95
2023-05-03T08:46:28.326Z,8.32
2023-05-03T08:48:55.623Z,8.80
2023-05-03T08:51:23.654Z,8.68
2023-05-03T08:53:50.803Z,10.20
2023-05-03T08:56:30.440Z,8.82
2023-05-03T08:58:58.211Z,10.73
2023-05-03T09:01:24.961Z,9.30
2023-05-03T09:03:52.182Z,8.88
2023-05-03T09:06:20.552Z,9.00
2023-05-03T09:08:47.321Z,11.70
2023-05-03T09:11:24.590Z,9.80
2023-05-03T09:13:52.417Z,12.35
2023-05-03T09:16:23.285Z,11.75
2023-05-03T09:19:09.343Z,13.85
2023-05-03T09:21:36.211Z,15.05
2023-05-03T09:24:04.167Z,16.10
2023-05-03T09:26:37.219Z,15.63
2023-05-03T09:29:04.586Z,14.43
2023-05-03T09:31:32.293Z,13.00
2023-05-03T09:33:59.061Z,12.93
2023-05-03T09:36:25.742Z,13.50
2023-05-03T09:38:52.477Z,9.82
2023-05-03T09:41:29.053Z,9.93
2023-05-03T09:43:56.887Z,9.07
2023-05-03T09:46:28.701Z,11.38
2023-05-03T09:48:57.070Z,10.63
2023-05-03T09:51:23.935Z,10.77
2023-05-03T09:53:50.705Z,10.45
2023-05-03T09:56:20.872Z,11.95
2023-05-03T09:58:47.899Z,14.48
2023-05-03T10:01:14.994Z,10.02
2023-05-03T10:03:53.071Z,12.45
2023-05-03T10:06:24.839Z,11.65
2023-05-03T10:08:58.408Z,12.40
2023-05-03T10:11:27.205Z,11.38
2023-05-03T10:13:54.914Z,12.98
2023-05-03T10:16:25.368Z,10.10
2023-05-03T10:18:56.380Z,12.50
2023-05-03T10:21:49.187Z,13.90
2023-05-03T10:24:16.650Z,9.25
2023-05-03T10:26:50.229Z,12.85
2023-05-03T10:29:35.284Z,13.27
2023-05-03T10:32:05.659Z,11.13
2023-05-03T10:34:33.588Z,13.00
2023-05-03T10:37:07.630Z,14.40
2023-05-03T10:39:34.258Z,11.80
2023-05-03T10:42:08.520Z,12.65
2023-05-03T10:44:38.636Z,15.05
2023-05-03T10:47:14.872Z,16.75
2023-05-03T10:49:41.556Z,13.55
2023-05-03T10:52:53.639Z,11.40
2023-05-03T10:55:22.555Z,13.45
2023-05-03T10:57:49.425Z,19.98
2023-05-03T11:00:22.135Z,17.52
2023-05-03T11:03:02.210Z,11.98
2023-05-03T11:05:29.401Z,11.80
2023-05-03T11:08:09.001Z,12.02
2023-05-03T11:10:35.798Z,11.52
2023-05-03T11:13:02.444Z,9.30
2023-05-03T11:15:29.232Z,11.23
2023-05-03T11:17:56.185Z,9.30
2023-05-03T11:20:22.886Z,9.25
2023-05-03T11:22:49.504Z,11.45
2023-05-03T11:25:16.268Z,11.35
2023-05-03T11:27:43.042Z,7.38
2023-05-03T11:30:10.382Z,10.32
2023-05-03T11:32:37.183Z,10.65
2023-05-03T11:35:05.840Z,8.45
2023-05-03T11:37:32.837Z,11.15
2023-05-03T11:39:59.956Z,13.85
2023-05-03T11:42:26.977Z,14.20
2023-05-03T11:44:56.359Z,12.77
2023-05-03T11:47:23.293Z,14.80
2023-05-03T11:49:57.218Z,16.05
2023-05-03T11:52:24.997Z,17.75
2023-05-03T11:54:51.984Z,17.92
2023-05-03T11:57:18.969Z,20.63
2023-05-03T11:59:45.747Z,22.92
2023-05-03T12:02:14.382Z,19.50
2023-05-03T12:04:45.358Z,18.27
2023-05-03T12:07:15.532Z,19.08
2023-05-03T12:09:50.357Z,19.90
2023-05-03T12:12:26.254Z,17.35
2023-05-03T12:15:03.740Z,14.70
2023-05-03T12:17:44.459Z,17.45
2023-05-03T12:22:56.694Z,19.35
2023-05-03T12:25:26.075Z,18.85
2023-05-03T12:28:14.718Z,14.90
2023-05-03T12:30:41.158Z,15.57
2023-05-03T12:33:10.162Z,18.40
2023-05-03T12:35:40.150Z,16.60
2023-05-03T12:38:09.696Z,14.98
2023-05-03T12:40:37.204Z,11.05
2023-05-03T12:43:04.344Z,12.75
2023-05-03T12:45:34.596Z,13.65
2023-05-03T12:48:02.966Z,17.88
2023-05-03T12:50:31.848Z,11.98
2023-05-03T12:53:02.296Z,8.63
2023-05-03T12:55:34.584Z,16.92
2023-05-03T13:00:35.965Z,16.17
2023-05-03T13:05:35.875Z,15.07
2023-05-03T13:08:09.092Z,13.00
2023-05-03T13:10:41.361Z,13.07
2023-05-03T13:13:09.240Z,14.98
2023-05-03T13:15:37.036Z,11.65
2023-05-03T13:18:06.833Z,10.00
2023-05-03T13:20:34.000Z,11.85
2023-05-03T13:23:00.653Z,11.43
2023-05-03T13:25:30.085Z,12.32
2023-05-03T13:27:57.637Z,15.18
2023-05-03T13:30:24.604Z,12.68
2023-05-03T13:32:52.061Z,17.55
2023-05-03T13:35:18.897Z,23.45
2023-05-03T13:37:45.670Z,25.52
2023-05-03T13:40:14.980Z,24.25
2023-05-03T13:42:41.684Z,24.88
2023-05-03T13:45:09.266Z,22.90
2023-05-03T13:47:59.565Z,20.80
2023-05-03T13:50:23.529Z,16.98
2023-05-03T13:52:50.327Z,14.35
2023-05-03T13:55:16.993Z,16.10
2023-05-03T13:57:44.335Z,26.73
2023-05-03T14:00:11.669Z,19.65
2023-05-03T14:02:38.403Z,20.92
2023-05-03T14:05:05.680Z,13.15
2023-05-03T14:07:32.812Z,12.38
2023-05-03T14:09:59.587Z,14.45
2023-05-03T14:12:26.622Z,12.57
2023-05-03T14:14:54.141Z,15.25
2023-05-03T14:17:21.708Z,15.15
2023-05-03T14:19:48.674Z,18.08
2023-05-03T14:22:15.380Z,14.27
2023-05-03T14:24:42.724Z,18.70
2023-05-03T14:27:09.469Z,14.85
2023-05-03T14:29:36.236Z,15.98
2023-05-03T14:32:02.947Z,14.02
2023-05-03T14:34:29.669Z,13.65
2023-05-03T14:36:56.512Z,12.85
2023-05-03T14:39:23.138Z,18.70
2023-05-03T14:41:51.135Z,14.93
2023-05-03T14:44:17.944Z,15.07
2023-05-03T14:46:44.683Z,21.65
2023-05-03T14:49:11.418Z,21.67
2023-05-03T14:51:38.244Z,16.70
2023-05-03T14:54:04.978Z,17.50
2023-05-03T14:56:34.589Z,15.50
2023-05-03T14:59:01.756Z,15.95
2023-05-03T15:01:28.435Z,14.40
2023-05-03T15:03:55.431Z,11.07
2023-05-03T15:06:29.690Z,14.63
2023-05-03T15:08:56.936Z,13.88
2023-05-03T15:11:23.717Z,12.85
2023-05-03T15:13:50.438Z,11.35
2023-05-03T15:16:17.192Z,11.95
2023-05-03T15:18:48.180Z,12.40
2023-05-03T15:21:24.390Z,15.88
2023-05-03T15:23:51.914Z,18.55
2023-05-03T15:26:18.665Z,16.83
2023-05-03T15:28:45.735Z,18.90
2023-05-03T15:31:15.817Z,18.98
2023-05-03T15:33:43.176Z,19.45
2023-05-03T15:36:13.764Z,18.45
2023-05-03T15:38:40.762Z,13.90
2023-05-03T15:41:08.111Z,14.90
2023-05-03T15:43:35.134Z,13.20
2023-05-03T15:46:01.927Z,11.30
2023-05-03T15:48:28.639Z,9.07
2023-05-03T15:50:55.391Z,10.70
2023-05-03T15:53:22.143Z,17.45
2023-05-03T15:55:49.680Z,15.43
2023-05-03T15:58:18.271Z,11.43
2023-05-03T16:00:44.940Z,7.05
2023-05-03T16:03:11.578Z,11.65
2023-05-03T16:05:38.471Z,12.75
2023-05-03T16:08:06.736Z,12.80
2023-05-03T16:10:33.804Z,17.50
2023-05-03T16:13:00.513Z,8.15
2023-05-03T16:15:27.298Z,12.20
2023-05-03T16:17:54.263Z,6.35
2023-05-03T16:20:21.198Z,5.78
2023-05-03T16:22:48.831Z,7.15
2023-05-03T16:27:42.931Z,18.33
2023-05-03T16:30:09.983Z,18.27
2023-05-03T16:32:37.060Z,46.80
2023-05-03T16:35:04.124Z,49.10
2023-05-03T16:37:31.910Z,36.95
2023-05-03T16:39:59.414Z,33.67
2023-05-03T16:42:26.228Z,23.88
2023-05-03T16:44:52.898Z,18.02
2023-05-03T16:47:19.620Z,25.88
2023-05-03T16:49:46.330Z,26.33
2023-05-03T16:52:12.980Z,30.40
2023-05-03T16:54:43.422Z,42.58
2023-05-03T16:57:10.274Z,46.35
2023-05-03T16:59:37.102Z,25.08
2023-05-03T17:02:03.989Z,30.45
2023-05-03T17:04:30.846Z,37.03
2023-05-03T17:06:57.856Z,49.70
2023-05-03T17:09:24.491Z,25.52
2023-05-03T17:11:51.177Z,31.27
2023-05-03T17:14:17.917Z,31.13
2023-05-03T17:16:46.152Z,33.95
2023-05-03T17:19:13.018Z,40.38
2023-05-03T17:21:39.684Z,37.20
2023-05-03T17:24:06.616Z,27.73
2023-05-03T17:26:33.326Z,26.77
2023-05-03T17:29:00.051Z,25.60
2023-05-03T17:31:26.765Z,32.00
2023-05-03T17:33:53.503Z,51.92
2023-05-03T17:36:22.220Z,27.70
2023-05-03T17:38:49.182Z,17.58
2023-05-03T17:41:15.877Z,17.40
2023-05-03T17:43:42.659Z,19.15
2023-05-03T17:46:13.695Z,18.63
2023-05-03T17:48:43.456Z,27.35
2023-05-03T17:51:12.602Z,27.67
2023-05-03T17:53:39.623Z,26.63
2023-05-03T17:56:16.065Z,52.70
2023-05-03T17:58:43.654Z,63.92
2023-05-03T18:01:11.123Z,63.67
2023-05-03T18:03:38.066Z,49.80
2023-05-03T18:06:07.616Z,58.85
2023-05-03T18:08:34.272Z,52.75
2023-05-03T18:11:02.120Z,38.67
2023-05-03T18:13:28.966Z,44.40
2023-05-03T18:15:55.905Z,94.25
2023-05-03T18:18:22.725Z,62.67
2023-05-03T18:21:03.748Z,37.00
2023-05-03T18:23:31.176Z,28.75
2023-05-03T18:25:57.891Z,27.13
2023-05-03T18:28:24.674Z,22.95
2023-05-03T18:30:52.867Z,24.48
2023-05-03T18:33:20.032Z,25.70
2023-05-03T18:35:50.407Z,20.60
2023-05-03T18:38:19.132Z,45.10
2023-05-03T18:40:46.256Z,48.63
2023-05-03T18:43:12.879Z,46.70
2023-05-03T18:45:40.089Z,44.17
2023-05-03T18:48:07.387Z,35.30
2023-05-03T18:50:35.085Z,41.58
2023-05-03T18:53:01.831Z,33.75
2023-05-03T18:55:28.497Z,34.65
2023-05-03T18:57:55.221Z,33.13
2023-05-03T19:00:22.117Z,16.52
2023-05-03T19:02:48.907Z,14.50
2023-05-03T19:05:15.676Z,17.40
2023-05-03T19:07:45.896Z,16.20
2023-05-03T19:10:12.719Z,21.70
2023-05-03T19:12:40.907Z,38.50
2023-05-03T19:15:08.018Z,49.60
2023-05-03T19:17:34.806Z,35.17
2023-05-03T19:20:01.742Z,30.75
2023-05-03T19:22:28.687Z,35.03
2023-05-03T19:24:55.476Z,32.80
2023-05-03T19:27:22.139Z,44.65
2023-05-03T19:29:48.793Z,45.05
2023-05-03T19:32:15.932Z,42.75
2023-05-03T19:34:42.581Z,46.53
2023-05-03T19:37:09.322Z,43.75
2023-05-03T19:39:37.827Z,29.48
2023-05-03T19:42:04.552Z,27.83
2023-05-03T19:44:31.325Z,34.10
2023-05-03T19:46:58.026Z,35.88
2023-05-03T19:49:24.980Z,29.13
2023-05-03T19:51:53.917Z,33.20
2023-05-03T19:54:20.818Z,25.90
2023-05-03T19:56:47.814Z,28.55
2023-05-03T19:59:15.057Z,23.67
2023-05-03T20:01:41.782Z,31.65
2023-05-03T20:04:08.582Z,24.55
2023-05-03T20:06:35.382Z,26.35
2023-05-03T20:09:02.491Z,30.05
2023-05-03T20:11:29.142Z,32.88
2023-05-03T20:13:55.961Z,31.52
2023-05-03T20:16:23.411Z,32.65
2023-05-03T20:18:50.093Z,31.73
2023-05-03T20:21:16.739Z,28.17
2023-05-03T20:23:43.541Z,25.20
2023-05-03T20:26:10.228Z,23.65
2023-05-03T20:28:36.918Z,29.40
2023-05-03T20:31:04.080Z,28.70
2023-05-03T20:33:30.798Z,39.25
2023-05-03T20:35:57.501Z,57.90
2023-05-03T20:38:24.130Z,48.72
2023-05-03T20:40:51.134Z,45.75
2023-05-03T20:43:18.645Z,67.25
2023-05-03T20:45:45.386Z,66.47
2023-05-03T20:48:12.158Z,72.18
2023-05-03T20:50:38.940Z,88.07
2023-05-03T20:53:05.629Z,42.38
2023-05-03T20:55:32.297Z,28.88
2023-05-03T20:57:58.987Z,23.60
2023-05-03T21:00:25.813Z,24.63
2023-05-03T21:02:54.656Z,19.88
2023-05-03T21:05:24.228Z,17.73
2023-05-03T21:07:51.579Z,18.48
2023-05-03T21:10:18.254Z,16.80
2023-05-03T21:12:44.992Z,15.43
2023-05-03T21:15:11.973Z,20.23
2023-05-03T21:17:38.764Z,19.35
2023-05-03T21:20:06.338Z,17.00
2023-05-03T21:22:33.124Z,38.05
2023-05-03T21:24:59.755Z,43.38
2023-05-03T21:27:26.451Z,30.25
2023-05-03T21:29:53.132Z,51.50
2023-05-03T21:32:19.775Z,91.85
2023-05-03T21:34:46.506Z,66.57
2023-05-03T21:37:13.176Z,38.65
2023-05-03T21:39:39.842Z,28.25
2023-05-03T21:42:06.595Z,30.45
2023-05-03T21:44:33.259Z,33.80
2023-05-03T21:47:00.340Z,25.90
2023-05-03T21:49:27.495Z,30.73
2023-05-03T21:51:54.198Z,31.80
2023-05-03T21:54:20.920Z,28.05
2023-05-03T21:56:48.234Z,26.75
2023-05-03T21:59:15.403Z,64.15
2023-05-03T22:01:42.161Z,35.20
2023-05-03T22:04:09.080Z,32.95
2023-05-03T22:06:36.173Z,29.85
2023-05-03T22:09:02.855Z,28.63
2023-05-03T22:11:29.837Z,26.33
2023-05-03T22:14:07.512Z,27.27
2023-05-03T22:16:35.831Z,26.48
2023-05-03T22:19:02.610Z,27.38
2023-05-03T22:21:29.363Z,23.38
2023-05-03T22:23:56.063Z,26.42
2023-05-03T22:26:22.759Z,26.90
2023-05-03T22:28:49.473Z,29.00
2023-05-03T22:31:16.306Z,30.08
2023-05-03T22:33:44.994Z,33.10
2023-05-03T22:36:12.481Z,41.90
2023-05-03T22:38:41.282Z,29.70
2023-05-03T22:41:09.335Z,30.02
2023-05-03T22:43:35.970Z,29.42
2023-05-03T22:46:02.964Z,26.38
2023-05-03T22:48:32.464Z,23.85
2023-05-03T22:50:59.469Z,27.88
2023-05-03T22:53:26.252Z,24.58
2023-05-03T22:56:00.806Z,23.08
2023-05-03T22:58:28.122Z,23.73
2023-05-03T23:00:54.793Z,21.98
2023-05-03T23:03:21.970Z,20.10
2023-05-03T23:05:49.327Z,15.43
2023-05-03T23:08:15.956Z,17.90
2023-05-03T23:10:42.582Z,18.48
2023-05-03T23:13:09.705Z,18.25
2023-05-03T23:15:36.897Z,14.18
2023-05-03T23:18:04.022Z,15.75
2023-05-03T23:20:30.724Z,17.45
2023-05-03T23:22:57.386Z,16.48
2023-05-03T23:25:24.038Z,16.42
2023-05-03T23:27:50.774Z,16.00
2023-05-03T23:30:17.827Z,15.40
2023-05-03T23:32:45.867Z,16.20
2023-05-03T23:35:13.289Z,22.70
2023-05-03T23:37:39.989Z,24.33
2023-05-03T23:40:07.124Z,24.35
2023-05-03T23:42:34.003Z,18.88
2023-05-03T23:45:00.687Z,16.48
2023-05-03T23:47:27.366Z,18.08
2023-05-03T23:49:54.160Z,13.98
2023-05-03T23:52:20.972Z,15.82
2023-05-03T23:54:47.641Z,11.85
2023-05-03T23:57:14.348Z,14.52
2023-05-03T23:59:40.990Z,13.57
